Time;durP1;ratioP1;P1;durP2;ratioP2;P2;SDS_P1;SDS_P2;PMS_P1;PMS_P2;Temp;Humidity;BMP_temperature;BMP_pressure;BME280_temperature;BME280_humidity;BME280_pressure;Samples;Min_cycle;Max_cycle;Signal;HPM_P1;HPM_P2
2023/11/04 00:00:03;;;;;;;0.40;0.40;;;6.40;99.90;;;;;;4979608;28;20395;-85
2023/11/04 00:02:30;;;;;;;0.30;0.30;;;6.40;99.90;;;;;;4975188;28;20198;-83
2023/11/04 00:04:58;;;;;;;0.30;0.30;;;6.40;99.90;;;;;;4974073;28;20236;-78
2023/11/04 00:07:24;;;;;;;0.38;0.38;;;6.40;99.90;;;;;;4978099;28;20399;-81
2023/11/04 00:09:51;;;;;;;0.40;0.40;;;6.50;99.90;;;;;;4976366;28;20227;-85
2023/11/04 00:12:21;;;;;;;0.30;0.30;;;6.40;99.90;;;;;;4973777;28;20279;-85
2023/11/04 00:14:51;;;;;;;0.40;0.40;;;6.40;99.90;;;;;;4976756;28;20242;-77
2023/11/04 00:17:18;;;;;;;1.15;1.05;;;6.40;99.90;;;;;;4976976;28;20211;-81
2023/11/04 00:19:45;;;;;;;0.73;0.73;;;6.40;99.90;;;;;;4959357;28;20271;-79
2023/11/04 00:22:14;;;;;;;1.13;1.13;;;6.40;99.90;;;;;;4966406;28;20196;-78
2023/11/04 00:24:41;;;;;;;0.30;0.30;;;6.50;99.90;;;;;;4979469;28;20225;-84
2023/11/04 00:27:08;;;;;;;0.68;0.68;;;6.50;99.90;;;;;;4973672;28;20213;-78
2023/11/04 00:29:36;;;;;;;0.38;0.38;;;6.50;99.90;;;;;;4968945;28;20199;-82
2023/11/04 00:32:03;;;;;;;0.40;0.40;;;6.50;99.90;;;;;;4965474;28;20284;-76
2023/11/04 00:34:30;;;;;;;0.40;0.40;;;6.50;99.90;;;;;;4975160;28;20282;-78
2023/11/04 00:36:58;;;;;;;0.45;0.45;;;6.50;99.90;;;;;;4973358;28;20203;-81
2023/11/04 00:39:24;;;;;;;1.05;1.05;;;6.50;99.90;;;;;;4971950;28;20282;-78
2023/11/04 00:41:52;;;;;;;0.50;0.50;;;6.50;99.90;;;;;;4972734;28;20251;-77
2023/11/04 00:44:19;;;;;;;0.40;0.40;;;6.50;99.90;;;;;;4963708;28;20586;-78
2023/11/04 00:46:49;;;;;;;0.57;0.57;;;6.60;99.90;;;;;;4969096;28;20736;-81
2023/11/04 00:49:16;;;;;;;0.40;0.40;;;6.60;99.90;;;;;;4975418;28;20230;-78
2023/11/04 00:51:42;;;;;;;0.50;0.50;;;6.60;99.90;;;;;;4973832;28;20208;-79
2023/11/04 00:54:10;;;;;;;1.85;1.20;;;6.60;99.90;;;;;;4976823;28;20207;-78
2023/11/04 00:56:37;;;;;;;0.52;0.52;;;6.60;99.90;;;;;;4977939;28;20396;-79
2023/11/04 00:59:05;;;;;;;2.00;1.85;;;6.60;99.90;;;;;;4967743;28;20222;-77
2023/11/04 01:01:32;;;;;;;0.30;0.30;;;6.70;99.90;;;;;;4956367;28;20203;-77
2023/11/04 01:03:59;;;;;;;0.40;0.40;;;6.70;99.90;;;;;;4971076;28;20622;-78
2023/11/04 01:06:26;;;;;;;0.40;0.40;;;6.70;99.90;;;;;;4964263;28;20209;-88
2023/11/04 01:08:53;;;;;;;0.30;0.30;;;6.70;99.90;;;;;;4966721;28;20207;-79
2023/11/04 01:11:21;;;;;;;0.30;0.30;;;6.70;99.90;;;;;;4966437;28;20203;-79
2023/11/04 01:13:48;;;;;;;0.40;0.40;;;6.80;99.90;;;;;;4969588;28;20277;-79
2023/11/04 01:16:15;;;;;;;0.40;0.40;;;6.80;99.90;;;;;;4967549;28;20239;-78
2023/11/04 01:18:42;;;;;;;0.40;0.40;;;6.80;99.90;;;;;;4973641;28;20274;-81
2023/11/04 01:21:10;;;;;;;0.40;0.40;;;6.80;99.90;;;;;;4972767;28;20226;-77
2023/11/04 01:23:38;;;;;;;0.30;0.30;;;6.80;99.90;;;;;;4975699;28;20211;-79
2023/11/04 01:26:04;;;;;;;0.30;0.30;;;6.80;99.90;;;;;;4972975;28;20237;-76
2023/11/04 01:28:32;;;;;;;0.50;0.50;;;6.80;99.90;;;;;;4973987;28;20387;-80
2023/11/04 01:30:59;;;;;;;1.33;1.23;;;6.80;99.90;;;;;;4971860;28;20234;-79
2023/11/04 01:33:26;;;;;;;0.57;0.57;;;6.80;99.90;;;;;;4966978;28;20505;-79
2023/11/04 01:35:54;;;;;;;0.30;0.30;;;6.70;99.90;;;;;;4978989;28;20237;-84
2023/11/04 01:38:21;;;;;;;0.40;0.40;;;6.80;99.90;;;;;;4968872;28;20286;-82
2023/11/04 01:40:49;;;;;;;0.68;0.68;;;6.80;99.90;;;;;;4969153;28;20211;-77
2023/11/04 01:43:27;;;;;;;0.38;0.38;;;6.80;99.90;;;;;;4974057;28;20435;-79
2023/11/04 01:46:19;;;;;;;0.50;0.50;;;6.80;99.90;;;;;;4973998;28;20214;-77
2023/11/04 01:48:46;;;;;;;0.40;0.40;;;6.80;99.90;;;;;;4962001;28;20204;-80
2023/11/04 01:51:15;;;;;;;2.70;2.53;;;6.80;99.90;;;;;;4970476;28;20211;-78
2023/11/04 01:53:48;;;;;;;0.40;0.40;;;6.80;99.90;;;;;;4974007;28;20203;-78
2023/11/04 01:56:20;;;;;;;0.40;0.40;;;6.80;99.90;;;;;;4977842;28;20286;-84
2023/11/04 01:58:48;;;;;;;0.30;0.30;;;6.80;99.90;;;;;;4965533;28;20401;-77
2023/11/04 02:01:15;;;;;;;0.40;0.40;;;6.80;99.90;;;;;;4973786;28;20199;-77
2023/11/04 02:03:43;;;;;;;0.55;0.55;;;6.80;99.90;;;;;;4969052;28;20207;-78
2023/11/04 02:06:10;;;;;;;0.95;0.95;;;6.80;99.90;;;;;;4965670;28;20203;-76
2023/11/04 02:08:37;;;;;;;0.32;0.32;;;6.90;99.90;;;;;;4972812;28;20203;-78
2023/11/04 02:11:04;;;;;;;0.50;0.50;;;6.90;99.90;;;;;;4964274;28;20203;-80
2023/11/04 02:13:31;;;;;;;0.52;0.52;;;6.90;99.90;;;;;;4974369;28;20227;-76
2023/11/04 02:15:59;;;;;;;0.40;0.40;;;6.90;99.90;;;;;;4973994;28;20270;-76
2023/11/04 02:18:27;;;;;;;0.60;0.60;;;6.90;99.90;;;;;;4980299;28;20275;-79
2023/11/04 02:21:00;;;;;;;1.33;0.93;;;6.90;99.90;;;;;;4973971;28;20504;-78
2023/11/04 02:23:28;;;;;;;0.40;0.40;;;6.90;99.90;;;;;;4968501;28;20453;-78
2023/11/04 02:25:54;;;;;;;0.40;0.40;;;6.80;99.90;;;;;;4977922;28;20294;-79
2023/11/04 02:28:22;;;;;;;1.00;1.00;;;6.80;99.90;;;;;;4967761;28;20200;-78
2023/11/04 02:30:50;;;;;;;2.08;1.88;;;6.90;99.90;;;;;;4969267;28;20259;-80
2023/11/04 02:33:17;;;;;;;0.40;0.40;;;6.90;99.90;;;;;;4972487;28;20536;-76
2023/11/04 02:35:45;;;;;;;0.40;0.40;;;6.90;99.90;;;;;;4977569;28;20221;-78
2023/11/04 02:38:12;;;;;;;0.95;0.95;;;6.90;99.90;;;;;;4968617;28;20203;-77
2023/11/04 02:40:39;;;;;;;0.40;0.40;;;6.90;99.90;;;;;;4966391;28;20580;-77
2023/11/04 02:43:07;;;;;;;0.50;0.50;;;6.90;99.90;;;;;;4965942;28;20274;-78
2023/11/04 02:45:34;;;;;;;1.20;1.17;;;6.90;99.90;;;;;;4965774;29;20229;-78
2023/11/04 02:48:01;;;;;;;0.68;0.68;;;6.90;99.90;;;;;;4964028;28;20218;-80
2023/11/04 02:50:29;;;;;;;0.40;0.40;;;6.90;99.90;;;;;;4968125;28;20235;-79
2023/11/04 02:52:56;;;;;;;1.77;1.67;;;6.90;99.90;;;;;;4973699;28;20223;-80
2023/11/04 02:55:23;;;;;;;0.95;0.95;;;6.90;99.90;;;;;;4973815;28;20274;-78
2023/11/04 02:57:50;;;;;;;0.40;0.40;;;6.90;99.90;;;;;;4976157;28;20565;-79
2023/11/04 03:00:17;;;;;;;0.55;0.55;;;7.00;99.90;;;;;;4976358;28;20211;-81
2023/11/04 03:02:44;;;;;;;0.73;0.73;;;6.90;99.90;;;;;;4975683;28;20278;-78
2023/11/04 03:05:12;;;;;;;0.55;0.55;;;7.00;99.90;;;;;;4975221;28;20238;-78
2023/11/04 03:07:53;;;;;;;0.50;0.50;;;7.00;99.90;;;;;;4977080;28;20199;-79
2023/11/04 03:10:20;;;;;;;0.80;0.80;;;6.90;99.90;;;;;;4977318;28;20270;-79
2023/11/04 03:12:47;;;;;;;0.75;0.75;;;7.00;99.90;;;;;;4977289;28;20209;-85
2023/11/04 03:15:16;;;;;;;1.60;1.50;;;7.00;99.90;;;;;;4968306;28;20267;-79
2023/11/04 03:17:42;;;;;;;1.75;1.65;;;6.90;99.90;;;;;;4977658;28;20206;-78
2023/11/04 03:20:10;;;;;;;0.90;0.90;;;6.90;99.90;;;;;;4965488;28;20204;-81
2023/11/04 03:22:37;;;;;;;0.40;0.40;;;6.90;99.90;;;;;;4967218;28;20246;-82
2023/11/04 03:25:05;;;;;;;1.33;1.25;;;6.90;99.90;;;;;;4975647;28;20405;-82
2023/11/04 03:27:32;;;;;;;0.93;0.93;;;6.90;99.90;;;;;;4964615;28;20278;-81
2023/11/04 03:29:59;;;;;;;0.50;0.50;;;6.90;99.90;;;;;;4967650;28;20214;-79
2023/11/04 03:32:26;;;;;;;0.50;0.50;;;6.90;99.90;;;;;;4967838;28;20207;-78
2023/11/04 03:34:53;;;;;;;2.55;2.38;;;6.90;99.90;;;;;;4970708;28;20211;-78
2023/11/04 03:37:19;;;;;;;1.50;1.48;;;6.90;99.90;;;;;;4966293;28;20279;-79
2023/11/04 03:39:47;;;;;;;2.10;1.90;;;6.90;99.90;;;;;;4976795;28;20234;-79
2023/11/04 03:42:13;;;;;;;1.65;1.55;;;6.90;99.90;;;;;;4973605;28;20191;-80
2023/11/04 03:44:40;;;;;;;0.80;0.80;;;7.00;99.90;;;;;;4969918;28;20298;-78
2023/11/04 03:47:07;;;;;;;1.55;1.50;;;7.10;99.90;;;;;;4978438;28;20219;-81
2023/11/04 03:49:34;;;;;;;0.63;0.63;;;7.00;99.90;;;;;;4968765;28;20245;-79
2023/11/04 03:52:02;;;;;;;0.50;0.50;;;7.00;99.90;;;;;;4975338;28;20227;-83
2023/11/04 03:54:29;;;;;;;0.40;0.40;;;7.00;99.90;;;;;;4978507;28;20566;-86
2023/11/04 03:56:57;;;;;;;0.95;0.95;;;7.00;99.90;;;;;;4970426;28;20208;-82
2023/11/04 03:59:24;;;;;;;0.68;0.68;;;6.90;99.90;;;;;;4964200;28;20230;-79
2023/11/04 04:01:50;;;;;;;0.50;0.50;;;6.90;99.90;;;;;;4970084;28;20270;-79
2023/11/04 04:04:18;;;;;;;0.98;0.98;;;6.80;99.90;;;;;;4977177;28;20234;-79
2023/11/04 04:06:45;;;;;;;0.80;0.80;;;6.80;99.90;;;;;;4976109;28;20217;-81
2023/11/04 04:09:14;;;;;;;2.30;1.05;;;6.70;99.90;;;;;;4966811;28;20218;-83
2023/11/04 04:11:41;;;;;;;0.88;0.82;;;6.70;99.90;;;;;;4964507;28;20212;-83
2023/11/04 04:14:08;;;;;;;1.50;1.40;;;6.60;99.90;;;;;;4960851;28;20459;-79
2023/11/04 04:16:35;;;;;;;0.40;0.40;;;6.60;99.90;;;;;;4967246;28;20526;-82
2023/11/04 04:19:02;;;;;;;0.50;0.50;;;6.60;99.90;;;;;;4975397;28;20207;-86
2023/11/04 04:21:29;;;;;;;0.40;0.40;;;6.50;99.90;;;;;;4975914;28;20200;-81
2023/11/04 04:23:57;;;;;;;0.93;0.93;;;6.50;99.90;;;;;;4970138;28;20274;-82
2023/11/04 04:26:24;;;;;;;0.60;0.60;;;6.50;99.90;;;;;;4967647;28;20411;-81
2023/11/04 04:28:51;;;;;;;1.05;1.05;;;6.60;99.90;;;;;;4973225;28;20388;-81
2023/11/04 04:31:18;;;;;;;0.40;0.40;;;6.60;99.90;;;;;;4964860;28;20234;-80
2023/11/04 04:33:45;;;;;;;1.02;0.95;;;6.60;99.90;;;;;;4975431;28;20523;-80
2023/11/04 04:36:13;;;;;;;0.40;0.40;;;6.60;99.90;;;;;;4967684;28;20259;-80
2023/11/04 04:38:40;;;;;;;0.50;0.50;;;6.60;99.90;;;;;;4962330;28;20543;-80
2023/11/04 04:41:08;;;;;;;8.80;2.05;;;6.50;99.90;;;;;;4964136;29;20556;-80
2023/11/04 04:43:36;;;;;;;0.80;0.80;;;6.60;99.90;;;;;;4967387;29;20275;-81
2023/11/04 04:46:04;;;;;;;2.00;1.90;;;6.60;99.90;;;;;;4965927;28;20223;-78
2023/11/04 04:48:33;;;;;;;0.50;0.50;;;6.60;99.90;;;;;;4973724;28;20383;-80
2023/11/04 04:51:00;;;;;;;0.55;0.55;;;6.60;99.90;;;;;;4967154;28;20203;-80
2023/11/04 04:53:27;;;;;;;1.15;1.15;;;6.60;99.90;;;;;;4961498;28;20222;-82
2023/11/04 04:55:54;;;;;;;1.25;1.15;;;6.50;99.90;;;;;;4963698;28;20211;-80
2023/11/04 04:58:22;;;;;;;0.75;0.75;;;6.60;99.90;;;;;;4969841;28;20480;-80
2023/11/04 05:00:49;;;;;;;0.38;0.38;;;6.60;99.90;;;;;;4963900;28;20227;-80
2023/11/04 05:03:16;;;;;;;7.95;2.08;;;6.60;99.90;;;;;;4964053;28;20396;-78
2023/11/04 05:05:43;;;;;;;1.75;1.67;;;6.70;99.90;;;;;;4964792;28;20253;-79
2023/11/04 05:08:10;;;;;;;0.95;0.95;;;6.50;99.90;;;;;;4970616;28;20203;-82
2023/11/04 05:10:37;;;;;;;1.98;1.77;;;6.60;99.90;;;;;;4965843;28;20207;-84
2023/11/04 05:13:08;;;;;;;0.60;0.60;;;6.70;99.90;;;;;;4970400;28;20203;-80
2023/11/04 05:15:35;;;;;;;1.80;1.70;;;6.70;99.90;;;;;;4963790;28;20286;-78
2023/11/04 05:18:02;;;;;;;2.08;1.67;;;6.70;99.90;;;;;;4970185;28;20207;-80
2023/11/04 05:20:30;;;;;;;1.42;1.33;;;6.60;99.90;;;;;;4967677;28;20203;-80
2023/11/04 05:22:57;;;;;;;3.33;3.03;;;6.50;99.90;;;;;;4964711;29;20212;-79
2023/11/04 05:25:24;;;;;;;0.75;0.75;;;6.50;99.90;;;;;;4970596;29;20258;-78
2023/11/04 05:27:52;;;;;;;0.65;0.65;;;6.50;99.90;;;;;;4975677;28;20397;-81
2023/11/04 05:30:19;;;;;;;2.20;2.10;;;6.50;99.90;;;;;;4965427;28;20207;-80
2023/11/04 05:32:46;;;;;;;3.15;2.63;;;6.50;99.90;;;;;;4960562;28;20433;-80
2023/11/04 05:35:13;;;;;;;0.93;0.93;;;6.40;99.90;;;;;;4960898;28;20238;-83
2023/11/04 05:37:40;;;;;;;1.27;1.17;;;6.40;99.90;;;;;;4959185;28;20207;-82
2023/11/04 05:40:07;;;;;;;0.75;0.75;;;6.40;99.90;;;;;;4970606;28;20331;-85
2023/11/04 05:42:34;;;;;;;6.07;2.60;;;6.50;99.90;;;;;;4963431;28;20208;-84
2023/11/04 05:45:02;;;;;;;0.70;0.70;;;6.50;99.90;;;;;;4968116;28;20452;-82
2023/11/04 05:47:29;;;;;;;0.98;0.88;;;6.50;99.90;;;;;;4969283;28;20203;-88
2023/11/04 05:49:56;;;;;;;0.90;0.90;;;6.50;99.90;;;;;;4967891;29;20270;-86
2023/11/04 05:52:23;;;;;;;0.70;0.70;;;6.40;99.90;;;;;;4972862;28;20302;-85
2023/11/04 05:54:50;;;;;;;0.77;0.77;;;6.40;99.90;;;;;;4982807;28;20209;-83
2023/11/04 05:57:18;;;;;;;2.05;1.98;;;6.40;99.90;;;;;;4968422;28;20255;-82
2023/11/04 05:59:45;;;;;;;0.60;0.60;;;6.40;99.90;;;;;;4976493;28;20259;-83
2023/11/04 06:02:12;;;;;;;3.13;2.85;;;6.40;99.90;;;;;;4981054;28;20500;-80
2023/11/04 06:04:40;;;;;;;3.00;2.67;;;6.30;99.90;;;;;;4974738;28;20278;-82
2023/11/04 06:07:08;;;;;;;0.75;0.75;;;6.40;99.90;;;;;;4961572;28;20203;-82
2023/11/04 06:09:36;;;;;;;1.35;1.27;;;6.40;99.90;;;;;;4973298;28;20216;-82
2023/11/04 06:12:03;;;;;;;1.42;1.33;;;6.50;99.90;;;;;;4972314;28;20210;-80
2023/11/04 06:14:31;;;;;;;6.82;4.00;;;6.70;99.90;;;;;;4978055;28;20228;-81
2023/11/04 06:17:00;;;;;;;3.95;3.08;;;6.70;99.90;;;;;;4972282;28;20210;-81
2023/11/04 06:19:26;;;;;;;2.95;2.05;;;6.60;99.90;;;;;;4967905;28;20234;-83
2023/11/04 06:21:54;;;;;;;1.20;1.17;;;6.60;99.90;;;;;;4973222;28;20275;-81
2023/11/04 06:24:21;;;;;;;0.50;0.50;;;6.60;99.90;;;;;;4965175;28;20230;-81
2023/11/04 06:26:48;;;;;;;0.85;0.82;;;6.50;99.90;;;;;;4968555;28;20227;-83
2023/11/04 06:29:16;;;;;;;1.95;1.85;;;6.50;99.90;;;;;;4965356;28;20279;-84
2023/11/04 06:31:43;;;;;;;0.40;0.40;;;6.50;99.90;;;;;;4971209;28;20250;-84
2023/11/04 06:34:11;;;;;;;2.92;2.72;;;6.60;99.90;;;;;;4966247;28;20888;-83
2023/11/04 06:36:38;;;;;;;0.60;0.60;;;6.60;99.90;;;;;;4969354;28;20408;-82
2023/11/04 06:39:06;;;;;;;1.25;1.25;;;6.80;99.90;;;;;;4967362;28;20203;-85
2023/11/04 06:41:33;;;;;;;1.55;1.45;;;6.70;99.90;;;;;;4970539;28;20234;-81
2023/11/04 06:44:00;;;;;;;0.77;0.77;;;6.70;99.90;;;;;;4961603;29;20234;-81
2023/11/04 06:46:27;;;;;;;2.78;2.58;;;6.70;99.90;;;;;;4962754;29;20583;-84
2023/11/04 06:48:54;;;;;;;0.82;0.70;;;6.80;99.90;;;;;;4960659;28;20208;-82
2023/11/04 06:51:21;;;;;;;1.20;1.15;;;6.90;99.90;;;;;;4970770;28;20215;-82
2023/11/04 06:53:49;;;;;;;0.82;0.82;;;6.90;99.90;;;;;;4974947;28;20222;-83
2023/11/04 06:56:16;;;;;;;1.27;1.25;;;7.00;99.90;;;;;;4971669;28;20243;-81
2023/11/04 06:58:44;;;;;;;1.40;1.40;;;7.10;99.90;;;;;;4959795;28;20242;-81
2023/11/04 07:01:14;;;;;;;2.15;1.42;;;7.10;99.90;;;;;;4967834;28;20405;-82
2023/11/04 07:03:42;;;;;;;0.65;0.65;;;7.30;99.90;;;;;;4962496;28;20228;-81
2023/11/04 07:06:13;;;;;;;1.95;1.85;;;7.30;99.90;;;;;;4962687;28;20590;-81
2023/11/04 07:08:42;;;;;;;1.90;1.70;;;7.30;99.90;;;;;;4959848;28;20221;-82
2023/11/04 07:11:14;;;;;;;1.70;1.60;;;7.40;99.90;;;;;;4962123;28;20565;-83
2023/11/04 07:13:41;;;;;;;1.17;1.17;;;7.50;99.90;;;;;;4966093;28;20211;-83
2023/11/04 07:16:10;;;;;;;2.53;2.42;;;8.00;99.90;;;;;;4963988;28;20215;-84
2023/11/04 07:18:38;;;;;;;4.75;4.30;;;8.20;99.90;;;;;;4967497;28;20442;-81
2023/11/04 07:21:05;;;;;;;1.77;1.67;;;8.90;99.90;;;;;;4958985;28;20263;-84
2023/11/04 07:23:32;;;;;;;1.60;1.52;;;8.90;99.90;;;;;;4959202;28;20198;-82
2023/11/04 07:26:00;;;;;;;0.65;0.65;;;8.60;99.90;;;;;;4972940;28;20276;-81
2023/11/04 07:28:34;;;;;;;1.48;1.38;;;8.80;99.90;;;;;;4963322;28;20278;-83
2023/11/04 07:31:05;;;;;;;1.15;1.15;;;8.70;99.90;;;;;;4960003;29;20562;-83
2023/11/04 07:33:33;;;;;;;1.10;1.05;;;8.70;99.90;;;;;;4961881;28;20271;-82
2023/11/04 07:36:00;;;;;;;1.80;1.73;;;8.50;99.90;;;;;;4962623;28;20642;-82
2023/11/04 07:38:27;;;;;;;2.40;2.30;;;8.60;99.90;;;;;;4962853;28;20199;-81
2023/11/04 07:40:55;;;;;;;2.35;2.25;;;8.50;99.90;;;;;;4967036;28;20211;-81
2023/11/04 07:43:22;;;;;;;0.70;0.70;;;8.80;99.90;;;;;;4962123;28;20310;-82
2023/11/04 07:45:57;;;;;;;0.43;0.43;;;9.00;99.90;;;;;;4964783;28;20242;-82
2023/11/04 07:48:24;;;;;;;0.50;0.50;;;9.30;99.90;;;;;;4968533;28;20230;-83
2023/11/04 07:50:51;;;;;;;0.50;0.50;;;9.50;99.90;;;;;;4976792;28;20261;-83
2023/11/04 07:53:18;;;;;;;2.17;1.98;;;9.30;99.90;;;;;;4964449;28;20283;-82
2023/11/04 07:55:46;;;;;;;2.85;2.75;;;9.30;99.90;;;;;;4961413;28;20784;-83
2023/11/04 07:58:16;;;;;;;0.50;0.50;;;9.30;99.90;;;;;;4964867;28;20216;-82
2023/11/04 08:00:43;;;;;;;2.45;2.35;;;9.40;99.90;;;;;;4964466;28;20212;-80
2023/11/04 08:03:10;;;;;;;1.08;0.88;;;9.40;99.90;;;;;;4962614;28;20203;-80
2023/11/04 08:05:40;;;;;;;2.80;2.60;;;9.40;99.90;;;;;;4962590;28;20220;-80
2023/11/04 08:08:09;;;;;;;2.13;2.03;;;9.50;99.90;;;;;;4974780;28;20202;-80
2023/11/04 08:10:37;;;;;;;1.48;1.45;;;9.80;99.90;;;;;;4969506;28;20504;-80
2023/11/04 08:13:04;;;;;;;0.50;0.50;;;10.20;99.90;;;;;;4977214;28;20238;-83
2023/11/04 08:15:31;;;;;;;0.70;0.70;;;11.10;99.90;;;;;;4964882;28;20254;-81
2023/11/04 08:17:59;;;;;;;0.63;0.63;;;12.40;99.90;;;;;;4965850;28;20714;-81
2023/11/04 08:20:27;;;;;;;0.50;0.50;;;13.50;99.90;;;;;;4958681;28;20243;-80
2023/11/04 08:22:54;;;;;;;0.75;0.75;;;14.10;99.90;;;;;;4955528;28;20302;-81
2023/11/04 08:25:23;;;;;;;1.23;1.23;;;14.00;99.90;;;;;;4959347;28;20212;-82
2023/11/04 08:27:50;;;;;;;1.67;1.67;;;14.20;99.90;;;;;;4961513;28;20215;-80
2023/11/04 08:30:17;;;;;;;0.73;0.73;;;13.30;99.90;;;;;;4965821;28;20774;-81
2023/11/04 08:32:44;;;;;;;1.07;1.07;;;13.20;99.90;;;;;;4971274;28;20461;-81
2023/11/04 08:35:13;;;;;;;0.70;0.70;;;13.60;99.90;;;;;;4961470;28;20803;-82
2023/11/04 08:37:39;;;;;;;0.80;0.80;;;12.60;99.90;;;;;;4963104;28;20635;-82
2023/11/04 08:40:07;;;;;;;1.37;1.37;;;12.60;99.90;;;;;;4961539;28;20438;-80
2023/11/04 08:42:34;;;;;;;2.03;1.93;;;12.50;99.90;;;;;;4958875;28;20466;-81
2023/11/04 08:45:01;;;;;;;1.47;1.37;;;12.30;99.90;;;;;;4970288;28;20437;-83
2023/11/04 08:47:28;;;;;;;3.27;3.10;;;12.20;99.90;;;;;;4960391;28;20685;-83
2023/11/04 08:49:55;;;;;;;0.90;0.90;;;11.90;99.90;;;;;;4972196;28;20613;-80
2023/11/04 08:52:22;;;;;;;0.80;0.80;;;11.20;99.90;;;;;;4960844;28;20647;-80
2023/11/04 08:54:50;;;;;;;0.70;0.70;;;10.80;99.90;;;;;;4977259;28;20445;-82
2023/11/04 08:57:18;;;;;;;0.83;0.83;;;10.70;99.90;;;;;;4959232;28;20788;-81
2023/11/04 08:59:46;;;;;;;2.15;2.05;;;10.70;99.90;;;;;;4962885;28;20430;-81
2023/11/04 09:02:13;;;;;;;0.60;0.60;;;10.80;99.90;;;;;;4984154;28;20291;-81
2023/11/04 09:04:40;;;;;;;1.25;1.23;;;10.90;99.90;;;;;;4975823;28;20275;-79
2023/11/04 09:07:08;;;;;;;0.60;0.60;;;10.40;99.90;;;;;;4986086;28;20235;-81
2023/11/04 09:09:35;;;;;;;0.73;0.73;;;10.40;99.90;;;;;;4969096;28;20396;-81
2023/11/04 09:12:02;;;;;;;0.60;0.60;;;10.40;99.90;;;;;;4967370;28;20208;-81
2023/11/04 09:14:30;;;;;;;1.52;1.48;;;10.50;99.90;;;;;;4966506;28;20290;-82
2023/11/04 09:16:58;;;;;;;1.50;1.50;;;10.40;99.90;;;;;;4968221;28;20217;-81
2023/11/04 09:19:24;;;;;;;0.60;0.60;;;10.20;99.90;;;;;;4953475;28;20234;-81
2023/11/04 09:21:52;;;;;;;0.60;0.60;;;10.00;99.90;;;;;;4969000;28;20423;-83
2023/11/04 09:24:19;;;;;;;0.60;0.60;;;9.80;99.90;;;;;;4963411;28;20239;-84
2023/11/04 09:26:46;;;;;;;0.60;0.60;;;9.80;99.90;;;;;;4968864;28;20231;-79
2023/11/04 09:29:13;;;;;;;0.50;0.50;;;10.00;99.90;;;;;;4974228;28;20214;-80
2023/11/04 09:31:40;;;;;;;1.25;1.15;;;10.20;99.90;;;;;;4969947;28;20254;-81
2023/11/04 09:34:08;;;;;;;0.50;0.50;;;10.20;99.90;;;;;;4977243;28;20499;-83
2023/11/04 09:36:36;;;;;;;0.50;0.50;;;10.30;99.90;;;;;;4964822;28;20586;-81
2023/11/04 09:39:04;;;;;;;0.70;0.70;;;10.30;99.90;;;;;;4959282;28;20196;-81
2023/11/04 09:41:32;;;;;;;0.55;0.55;;;10.30;99.90;;;;;;4966827;28;20208;-80
2023/11/04 09:44:03;;;;;;;1.25;1.25;;;10.10;99.90;;;;;;4966270;28;20209;-82
2023/11/04 09:46:30;;;;;;;0.80;0.80;;;9.90;99.90;;;;;;4964408;28;20241;-81
2023/11/04 09:48:59;;;;;;;0.50;0.50;;;9.80;99.90;;;;;;4960449;28;20234;-82
2023/11/04 09:51:26;;;;;;;0.60;0.60;;;9.90;99.90;;;;;;4967256;28;20216;-82
2023/11/04 09:53:57;;;;;;;0.60;0.60;;;10.20;99.90;;;;;;4959736;28;20215;-82
2023/11/04 09:56:25;;;;;;;0.57;0.57;;;10.30;99.90;;;;;;4973332;28;20271;-83
2023/11/04 09:58:52;;;;;;;0.60;0.60;;;10.40;99.90;;;;;;4977333;28;20196;-80
2023/11/04 10:01:19;;;;;;;0.52;0.52;;;10.40;99.90;;;;;;4975970;28;20192;-83
2023/11/04 10:03:47;;;;;;;0.50;0.50;;;10.50;99.90;;;;;;4971188;28;20191;-83
2023/11/04 10:06:16;;;;;;;0.70;0.70;;;10.50;99.90;;;;;;4965916;28;20231;-80
2023/11/04 10:08:44;;;;;;;0.68;0.68;;;10.40;99.90;;;;;;4972711;28;20211;-84
2023/11/04 10:11:11;;;;;;;0.60;0.60;;;10.30;99.90;;;;;;4975986;28;20204;-80
2023/11/04 10:13:39;;;;;;;0.70;0.70;;;10.40;99.90;;;;;;4985179;28;20257;-85
2023/11/04 10:16:07;;;;;;;0.60;0.60;;;10.40;99.90;;;;;;4978689;28;20243;-82
2023/11/04 10:18:34;;;;;;;1.35;1.35;;;10.60;99.90;;;;;;4976474;28;20258;-81
2023/11/04 10:21:02;;;;;;;0.50;0.50;;;10.50;99.90;;;;;;4977648;28;20276;-84
2023/11/04 10:23:30;;;;;;;0.55;0.55;;;10.50;99.90;;;;;;4969908;28;20543;-84
2023/11/04 10:26:03;;;;;;;0.50;0.50;;;10.50;99.90;;;;;;4963974;28;20473;-83
2023/11/04 10:28:35;;;;;;;0.60;0.60;;;10.40;99.90;;;;;;4978996;28;20262;-85
2023/11/04 10:31:06;;;;;;;0.60;0.60;;;10.50;99.90;;;;;;4978125;28;20216;-78
2023/11/04 10:33:35;;;;;;;1.35;1.25;;;10.50;99.90;;;;;;4975032;28;20302;-82
2023/11/04 10:36:04;;;;;;;0.50;0.50;;;10.50;99.90;;;;;;4967521;28;20211;-83
2023/11/04 10:38:36;;;;;;;0.65;0.65;;;10.50;99.90;;;;;;4956454;28;20239;-87
2023/11/04 10:41:06;;;;;;;0.65;0.65;;;10.60;99.90;;;;;;4969303;28;20492;-83
2023/11/04 10:44:00;;;;;;;1.17;1.17;;;10.70;99.90;;;;;;4973085;28;20404;-81
2023/11/04 10:46:40;;;;;;;0.90;0.90;;;10.70;99.90;;;;;;4969213;28;20298;-85
2023/11/04 10:49:22;;;;;;;0.60;0.60;;;10.80;99.90;;;;;;4971951;28;20429;-80
2023/11/04 10:51:58;;;;;;;0.60;0.60;;;10.80;99.90;;;;;;4967325;28;20222;-86
2023/11/04 10:54:32;;;;;;;1.00;1.00;;;10.90;99.90;;;;;;4964163;28;20203;-83
2023/11/04 10:57:07;;;;;;;0.50;0.50;;;10.80;99.90;;;;;;4965608;28;20251;-87
2023/11/04 10:59:43;;;;;;;0.60;0.60;;;10.80;99.90;;;;;;4964278;28;20207;-83
2023/11/04 11:02:11;;;;;;;0.85;0.85;;;10.70;99.90;;;;;;4975706;28;20274;-82
2023/11/04 11:04:41;;;;;;;0.80;0.80;;;10.70;99.90;;;;;;4964754;28;20243;-86
2023/11/04 11:07:15;;;;;;;0.98;0.98;;;10.70;99.90;;;;;;4962064;28;20231;-82
2023/11/04 11:09:43;;;;;;;0.60;0.60;;;10.70;99.90;;;;;;4960502;28;20535;-86
2023/11/04 11:12:18;;;;;;;0.60;0.60;;;10.70;99.90;;;;;;4972221;28;20207;-83
2023/11/04 11:14:46;;;;;;;0.60;0.60;;;10.60;99.90;;;;;;4977105;28;20406;-83
2023/11/04 11:17:14;;;;;;;0.60;0.60;;;10.60;99.90;;;;;;4970748;28;20258;-90
2023/11/04 11:19:48;;;;;;;0.70;0.70;;;10.60;99.90;;;;;;4963449;28;20216;-83
2023/11/04 11:22:25;;;;;;;0.52;0.52;;;10.70;99.90;;;;;;4962909;28;20202;-86
2023/11/04 11:24:56;;;;;;;1.00;1.00;;;10.90;99.90;;;;;;4970177;28;20211;-88
2023/11/04 11:27:24;;;;;;;0.50;0.50;;;10.90;99.90;;;;;;4968032;28;20296;-85
2023/11/04 11:29:53;;;;;;;0.50;0.50;;;11.00;99.90;;;;;;4958919;28;20555;-78
2023/11/04 11:32:20;;;;;;;0.50;0.50;;;11.00;99.90;;;;;;4967410;28;20443;-84
2023/11/04 11:34:49;;;;;;;0.50;0.50;;;11.00;99.90;;;;;;4975850;28;20214;-82
2023/11/04 11:37:26;;;;;;;0.50;0.50;;;11.00;99.90;;;;;;4970425;28;20220;-83
2023/11/04 11:39:54;;;;;;;0.50;0.50;;;11.20;99.90;;;;;;4958824;28;20258;-82
2023/11/04 11:42:26;;;;;;;0.50;0.50;;;11.10;99.90;;;;;;4960191;28;20207;-82
2023/11/04 11:44:54;;;;;;;0.50;0.50;;;11.00;99.90;;;;;;4957972;28;20211;-85
2023/11/04 11:47:22;;;;;;;1.67;0.85;;;11.00;99.90;;;;;;4963570;28;20231;-84
2023/11/04 11:49:53;;;;;;;0.60;0.60;;;11.10;99.90;;;;;;4966714;28;20500;-83
2023/11/04 11:52:21;;;;;;;0.80;0.80;;;11.20;99.90;;;;;;4973562;28;20206;-86
2023/11/04 11:54:48;;;;;;;0.60;0.60;;;11.10;99.90;;;;;;4974248;28;20225;-86
2023/11/04 11:57:16;;;;;;;0.50;0.50;;;11.20;99.90;;;;;;4965211;28;20208;-86
2023/11/04 11:59:42;;;;;;;0.50;0.50;;;11.10;99.90;;;;;;4971032;28;20484;-84
2023/11/04 12:02:10;;;;;;;0.50;0.50;;;11.20;99.90;;;;;;4969915;28;20283;-78
2023/11/04 12:04:38;;;;;;;0.98;0.98;;;11.20;99.90;;;;;;4970850;28;20211;-84
2023/11/04 12:07:06;;;;;;;0.55;0.55;;;11.20;99.90;;;;;;4975874;28;20230;-84
2023/11/04 12:09:33;;;;;;;1.83;1.73;;;11.20;99.90;;;;;;4970048;28;20471;-83
2023/11/04 12:12:01;;;;;;;0.50;0.50;;;11.20;99.90;;;;;;4967270;28;20208;-84
2023/11/04 12:14:30;;;;;;;0.50;0.50;;;11.10;99.90;;;;;;4963213;28;20238;-83
2023/11/04 12:16:58;;;;;;;0.70;0.70;;;11.30;99.90;;;;;;4976733;28;20271;-82
2023/11/04 12:19:25;;;;;;;0.90;0.90;;;11.20;99.90;;;;;;4956402;28;20211;-86
2023/11/04 12:21:53;;;;;;;0.50;0.50;;;11.10;99.90;;;;;;4973124;28;20387;-83
2023/11/04 12:24:21;;;;;;;0.55;0.55;;;10.90;99.90;;;;;;4967734;28;20207;-83
2023/11/04 12:26:51;;;;;;;0.50;0.50;;;10.90;99.90;;;;;;4957960;28;20290;-86
2023/11/04 12:29:19;;;;;;;0.50;0.50;;;11.00;99.90;;;;;;4981860;28;20235;-83
2023/11/04 12:31:49;;;;;;;1.40;1.30;;;11.10;99.90;;;;;;4959251;28;20239;-83
2023/11/04 12:34:22;;;;;;;0.50;0.50;;;11.10;99.90;;;;;;4972946;28;20282;-84
2023/11/04 12:36:51;;;;;;;0.63;0.63;;;11.10;99.90;;;;;;4964291;28;20230;-86
2023/11/04 12:39:18;;;;;;;0.50;0.50;;;11.20;99.90;;;;;;4973796;28;20570;-86
2023/11/04 12:41:46;;;;;;;0.77;0.77;;;11.10;99.90;;;;;;4968876;28;20278;-88
2023/11/04 12:44:15;;;;;;;0.50;0.50;;;11.10;99.90;;;;;;4974535;28;20387;-82
2023/11/04 12:46:43;;;;;;;0.50;0.50;;;11.10;99.90;;;;;;4975001;28;20700;-84
2023/11/04 12:49:10;;;;;;;0.65;0.60;;;10.90;99.90;;;;;;4968966;28;20204;-90
2023/11/04 12:51:37;;;;;;;0.50;0.50;;;10.90;99.90;;;;;;4963455;28;20238;-87
2023/11/04 12:54:05;;;;;;;0.85;0.85;;;11.10;99.90;;;;;;4962700;28;20215;-88
2023/11/04 12:56:32;;;;;;;1.38;1.08;;;11.10;99.90;;;;;;4965752;28;20206;-83